Time;durP1;ratioP1;P1;durP2;ratioP2;P2;SDS_P1;SDS_P2;PMS_P1;PMS_P2;Temp;Humidity;BMP_temperature;BMP_pressure;BME280_temperature;BME280_humidity;BME280_pressure;Samples;Min_cycle;Max_cycle;Signal;HPM_P1;HPM_P2
2022/03/19 00:02:27;;;;;;;;;;;;;;;7.15;100.00;104253.75;5296283;28;20365;-86
2022/03/19 00:04:58;;;;;;;;;;;;;;;7.15;100.00;104258.28;5297439;28;19958;-85
2022/03/19 00:07:29;;;;;;;;;;;;;;;7.11;100.00;104258.56;5297213;28;19919;-85
2022/03/19 00:09:59;;;;;;;;;;;;;;;7.14;100.00;104261.97;5296012;28;20300;-83
2022/03/19 00:12:29;;;;;;;;;;;;;;;7.11;100.00;104257.72;5276704;28;19916;-82
2022/03/19 00:14:59;;;;;;;;;;;;;;;7.08;100.00;104250.81;5281175;27;19916;-82
2022/03/19 00:17:30;;;;;;;;;;;;;;;7.09;100.00;104249.81;5299157;27;19972;-83
2022/03/19 00:20:00;;;;;;;;;;;;;;;7.04;100.00;104249.41;5317543;27;20262;-84
2022/03/19 00:22:30;;;;;;;;;;;;;;;7.08;100.00;104247.28;5317419;27;19911;-85
2022/03/19 00:25:01;;;;;;;;;;;;;;;7.08;100.00;104248.13;5299163;27;19962;-84
2022/03/19 00:27:31;;;;;;;;;;;;;;;7.06;100.00;104257.31;5318314;27;20380;-80
2022/03/19 00:30:01;;;;;;;;;;;;;;;7.04;100.00;104246.72;5317340;27;19911;-83
2022/03/19 00:32:32;;;;;;;;;;;;;;;7.05;100.00;104255.63;5316904;27;19981;-84
2022/03/19 00:35:03;;;;;;;;;;;;;;;7.04;100.00;104253.94;5315652;27;20337;-83
2022/03/19 00:37:53;;;;;;;;;;;;;;;7.03;100.00;104257.63;5297945;27;19919;-82
2022/03/19 00:40:23;;;;;;;;;;;;;;;7.01;100.00;104256.94;5316703;27;20397;-82
2022/03/19 00:42:53;;;;;;;;;;;;;;;6.91;100.00;104253.47;5316100;27;19915;-82
2022/03/19 00:45:24;;;;;;;;;;;;;;;6.84;100.00;104257.72;5296982;27;19912;-81
2022/03/19 00:47:54;;;;;;;;;;;;;;;6.83;100.00;104261.41;5315783;27;19972;-83
2022/03/19 00:50:25;;;;;;;;;;;;;;;6.82;100.00;104243.59;5315156;27;19912;-83
2022/03/19 00:52:55;;;;;;;;;;;;;;;6.87;100.00;104257.44;5316039;27;20384;-83
2022/03/19 00:55:25;;;;;;;;;;;;;;;6.87;100.00;104249.38;5315741;27;20395;-83
2022/03/19 00:57:55;;;;;;;;;;;;;;;6.86;100.00;104251.22;5316352;27;20265;-83
2022/03/19 01:00:26;;;;;;;;;;;;;;;6.87;100.00;104246.69;5316646;27;19915;-82
2022/03/19 01:02:57;;;;;;;;;;;;;;;6.91;100.00;104238.19;5315508;27;19911;-83
2022/03/19 01:05:27;;;;;;;;;;;;;;;6.93;100.00;104246.09;5315318;27;19922;-82
2022/03/19 01:07:58;;;;;;;;;;;;;;;6.94;100.00;104245.06;5315562;27;19916;-82
2022/03/19 01:10:29;;;;;;;;;;;;;;;6.92;100.00;104230.97;5315763;27;19922;-83
2022/03/19 01:12:59;;;;;;;;;;;;;;;6.96;100.00;104240.41;5315631;27;19915;-82
2022/03/19 01:15:29;;;;;;;;;;;;;;;6.92;100.00;104228.28;5314980;27;19923;-82
2022/03/19 01:18:00;;;;;;;;;;;;;;;6.95;100.00;104222.59;5315874;27;19911;-82
2022/03/19 01:20:31;;;;;;;;;;;;;;;6.98;100.00;104224.97;5315335;27;20059;-82
2022/03/19 01:23:02;;;;;;;;;;;;;;;6.95;100.00;104215.38;5297172;27;19911;-82
2022/03/19 01:25:32;;;;;;;;;;;;;;;6.90;100.00;104217.69;5297370;27;19956;-82
2022/03/19 01:28:03;;;;;;;;;;;;;;;6.88;100.00;104221.50;5296782;27;19911;-82
2022/03/19 01:30:34;;;;;;;;;;;;;;;6.83;100.00;104213.91;5315634;27;19991;-82
2022/03/19 01:33:04;;;;;;;;;;;;;;;6.81;100.00;104210.50;5297104;27;19947;-82
2022/03/19 01:35:34;;;;;;;;;;;;;;;6.72;100.00;104203.34;5315128;27;19969;-82
2022/03/19 01:38:05;;;;;;;;;;;;;;;6.69;100.00;104207.16;5315386;27;19911;-82
2022/03/19 01:40:35;;;;;;;;;;;;;;;6.62;100.00;104207.94;5315224;27;19912;-81
2022/03/19 01:43:05;;;;;;;;;;;;;;;6.56;100.00;104211.19;5315336;27;20281;-81
2022/03/19 01:45:35;;;;;;;;;;;;;;;6.44;100.00;104205.16;5314853;27;19912;-81
2022/03/19 01:48:06;;;;;;;;;;;;;;;6.28;100.00;104195.03;5296302;27;19998;-82
2022/03/19 01:50:36;;;;;;;;;;;;;;;6.24;100.00;104209.75;5296517;27;19955;-83
2022/03/19 01:53:07;;;;;;;;;;;;;;;6.22;100.00;104202.81;5315733;27;19920;-83
2022/03/19 01:55:37;;;;;;;;;;;;;;;6.17;100.00;104210.47;5315041;28;19965;-83
2022/03/19 01:58:08;;;;;;;;;;;;;;;6.11;100.00;104206.50;5315142;28;19940;-82
2022/03/19 02:00:38;;;;;;;;;;;;;;;6.10;100.00;104207.50;5315016;28;19911;-83
2022/03/19 02:03:09;;;;;;;;;;;;;;;6.07;100.00;104211.31;5315633;28;19938;-83
2022/03/19 02:05:39;;;;;;;;;;;;;;;6.03;100.00;104211.78;5315289;28;20376;-83
2022/03/19 02:08:10;;;;;;;;;;;;;;;6.00;100.00;104214.75;5297344;28;19911;-83
2022/03/19 02:10:40;;;;;;;;;;;;;;;5.93;100.00;104213.63;5315819;28;19958;-82
2022/03/19 02:13:10;;;;;;;;;;;;;;;5.85;100.00;104214.28;5296780;27;19972;-83
2022/03/19 02:15:40;;;;;;;;;;;;;;;5.86;100.00;104210.63;5318474;27;19941;-83
2022/03/19 02:18:10;;;;;;;;;;;;;;;5.86;100.00;104207.94;5319798;27;20046;-83
2022/03/19 02:20:41;;;;;;;;;;;;;;;5.88;100.00;104197.06;5319205;27;19933;-83
2022/03/19 02:26:09;;;;;;;;;;;;;;;5.76;100.00;104199.91;5319618;27;19922;-86
2022/03/19 02:28:39;;;;;;;;;;;;;;;5.70;100.00;104196.94;5318614;27;19955;-82
2022/03/19 02:31:09;;;;;;;;;;;;;;;5.63;100.00;104190.47;5300546;27;20364;-83
2022/03/19 02:33:40;;;;;;;;;;;;;;;5.55;100.00;104188.47;5318367;27;19926;-83
2022/03/19 02:36:10;;;;;;;;;;;;;;;5.52;100.00;104187.91;5319535;27;19912;-83
2022/03/19 02:38:40;;;;;;;;;;;;;;;5.51;100.00;104187.06;5300572;27;19911;-83
2022/03/19 02:41:10;;;;;;;;;;;;;;;5.49;100.00;104189.03;5319211;27;19946;-83
2022/03/19 02:43:41;;;;;;;;;;;;;;;5.48;100.00;104179.31;5300500;27;19911;-83
2022/03/19 02:46:11;;;;;;;;;;;;;;;5.45;100.00;104176.94;5300959;27;20404;-83
2022/03/19 02:48:42;;;;;;;;;;;;;;;5.42;100.00;104169.16;5318895;27;19958;-83
2022/03/19 02:51:13;;;;;;;;;;;;;;;5.34;100.00;104169.84;5300890;27;19911;-82
2022/03/19 02:53:43;;;;;;;;;;;;;;;5.25;100.00;104167.16;5318305;27;19915;-82
2022/03/19 02:56:13;;;;;;;;;;;;;;;5.28;100.00;104162.38;5318534;27;19912;-83
2022/03/19 02:58:44;;;;;;;;;;;;;;;5.27;100.00;104162.50;5318485;27;19911;-82
2022/03/19 03:01:14;;;;;;;;;;;;;;;5.22;100.00;104156.72;5318669;27;19955;-82
2022/03/19 03:03:44;;;;;;;;;;;;;;;5.21;100.00;104169.28;5319087;27;19912;-82
2022/03/19 03:06:14;;;;;;;;;;;;;;;5.19;100.00;104162.38;5318945;27;19911;-83
2022/03/19 03:08:45;;;;;;;;;;;;;;;5.13;100.00;104158.44;5318603;27;19917;-82
2022/03/19 03:11:15;;;;;;;;;;;;;;;5.09;100.00;104160.53;5318438;27;19912;-83
2022/03/19 03:13:45;;;;;;;;;;;;;;;5.05;100.00;104160.94;5299882;27;19919;-83
2022/03/19 03:16:16;;;;;;;;;;;;;;;4.98;100.00;104157.13;5299855;27;19955;-83
2022/03/19 03:18:46;;;;;;;;;;;;;;;4.92;100.00;104163.00;5318047;27;20401;-81
2022/03/19 03:21:17;;;;;;;;;;;;;;;4.87;100.00;104155.44;5318611;27;20416;-83
2022/03/19 03:23:47;;;;;;;;;;;;;;;4.88;100.00;104154.44;5317636;27;19919;-82
2022/03/19 03:26:17;;;;;;;;;;;;;;;4.88;100.00;104162.47;5318896;27;19954;-82
2022/03/19 03:28:47;;;;;;;;;;;;;;;4.83;100.00;104159.34;5318701;27;19922;-82
2022/03/19 03:31:18;;;;;;;;;;;;;;;4.82;100.00;104162.16;5301099;27;19939;-82
2022/03/19 03:33:49;;;;;;;;;;;;;;;4.79;100.00;104155.25;5323157;27;19921;-83
2022/03/19 03:36:19;;;;;;;;;;;;;;;4.79;100.00;104157.09;5322418;27;20014;-81
2022/03/19 03:38:49;;;;;;;;;;;;;;;4.74;100.00;104160.16;5323976;27;19912;-83
2022/03/19 03:41:19;;;;;;;;;;;;;;;4.69;100.00;104157.91;5324402;27;19982;-82
2022/03/19 03:43:50;;;;;;;;;;;;;;;4.64;100.00;104161.97;5324460;27;19912;-82
2022/03/19 03:46:20;;;;;;;;;;;;;;;4.59;100.00;104166.91;5323020;27;19994;-82
2022/03/19 03:48:50;;;;;;;;;;;;;;;4.58;100.00;104158.03;5299131;27;19911;-83
2022/03/19 03:51:21;;;;;;;;;;;;;;;4.56;100.00;104154.63;5317812;27;20406;-82
2022/03/19 03:53:51;;;;;;;;;;;;;;;4.53;100.00;104154.06;5298389;27;20388;-82
2022/03/19 03:56:21;;;;;;;;;;;;;;;4.53;100.00;104157.56;5317871;27;19918;-82
2022/03/19 03:58:52;;;;;;;;;;;;;;;4.51;100.00;104156.84;5317524;27;20429;-82
2022/03/19 04:01:22;;;;;;;;;;;;;;;4.49;100.00;104150.78;5317542;27;20009;-83
2022/03/19 04:03:53;;;;;;;;;;;;;;;4.50;100.00;104163.19;5298741;27;19915;-82
2022/03/19 04:06:23;;;;;;;;;;;;;;;4.49;100.00;104160.66;5298544;27;19917;-82
2022/03/19 04:08:53;;;;;;;;;;;;;;;4.46;100.00;104163.59;5316967;27;19912;-83
2022/03/19 04:11:24;;;;;;;;;;;;;;;4.42;100.00;104157.66;5316559;27;19911;-82
2022/03/19 04:13:54;;;;;;;;;;;;;;;4.43;100.00;104155.81;5316492;27;19915;-82
2022/03/19 04:16:24;;;;;;;;;;;;;;;4.44;100.00;104147.66;5303914;22;19962;-59
2022/03/19 04:18:55;;;;;;;;;;;;;;;4.47;100.00;104150.09;5272753;28;19968;-60
2022/03/19 04:21:25;;;;;;;;;;;;;;;4.41;100.00;104148.78;5273391;28;19919;-62
2022/03/19 04:23:55;;;;;;;;;;;;;;;4.36;100.00;104150.16;5256271;28;19986;-61
2022/03/19 04:26:25;;;;;;;;;;;;;;;4.32;100.00;104148.75;5252057;28;19999;-60
2022/03/19 04:28:56;;;;;;;;;;;;;;;4.32;100.00;104152.28;5252227;28;20299;-61
2022/03/19 04:31:26;;;;;;;;;;;;;;;4.35;100.00;104143.97;5252241;28;19918;-60
2022/03/19 04:33:56;;;;;;;;;;;;;;;4.31;100.00;104150.59;5269759;28;19916;-60
2022/03/19 04:36:30;;;;;;;;;;;;;;;4.36;100.00;104152.84;5252010;28;19957;-60
2022/03/19 04:39:02;;;;;;;;;;;;;;;4.36;100.00;104145.66;5251837;28;19918;-59
2022/03/19 04:41:33;;;;;;;;;;;;;;;4.39;100.00;104149.91;5252193;28;19916;-59
2022/03/19 04:44:07;;;;;;;;;;;;;;;4.39;100.00;104144.53;5251848;28;19912;-65
2022/03/19 04:46:37;;;;;;;;;;;;;;;4.38;100.00;104132.16;5251855;28;19919;-60
2022/03/19 04:49:08;;;;;;;;;;;;;;;4.31;100.00;104136.38;5252350;28;19971;-60
2022/03/19 04:51:38;;;;;;;;;;;;;;;4.27;100.00;104138.47;5252059;28;19923;-60
2022/03/19 04:54:10;;;;;;;;;;;;;;;4.26;100.00;104127.88;5251182;28;20517;-60
2022/03/19 04:56:40;;;;;;;;;;;;;;;4.26;100.00;104133.25;5251267;28;19912;-60
2022/03/19 04:59:11;;;;;;;;;;;;;;;4.20;100.00;104128.41;5269429;28;19979;-60
2022/03/19 05:01:42;;;;;;;;;;;;;;;4.16;100.00;104137.69;5251309;28;19912;-60
2022/03/19 05:04:12;;;;;;;;;;;;;;;4.16;100.00;104127.00;5250748;28;19912;-60
2022/03/19 05:06:43;;;;;;;;;;;;;;;4.12;100.00;104133.56;5251829;28;19912;-61
2022/03/19 05:12:02;;;;;;;;;;;;;;;4.08;100.00;104131.16;5271037;28;20308;-59
2022/03/19 05:14:32;;;;;;;;;;;;;;;4.02;100.00;104134.41;5252337;28;19911;-61
2022/03/19 05:17:03;;;;;;;;;;;;;;;4.04;100.00;104129.75;5252641;28;19916;-60
2022/03/19 05:19:33;;;;;;;;;;;;;;;4.04;100.00;104139.63;5253303;28;20297;-59
2022/03/19 05:22:04;;;;;;;;;;;;;;;4.00;100.00;104144.38;5252798;28;19916;-60
2022/03/19 05:24:34;;;;;;;;;;;;;;;4.01;100.00;104143.41;5253132;28;19973;-59
2022/03/19 05:27:04;;;;;;;;;;;;;;;4.02;100.00;104145.09;5252990;28;20291;-60
2022/03/19 05:29:35;;;;;;;;;;;;;;;4.00;100.00;104143.53;5253273;28;19912;-60
2022/03/19 05:32:05;;;;;;;;;;;;;;;3.98;100.00;104143.66;5253313;28;19912;-58
2022/03/19 05:34:36;;;;;;;;;;;;;;;3.96;100.00;104142.94;5271134;28;20408;-59
2022/03/19 05:37:06;;;;;;;;;;;;;;;3.92;100.00;104149.53;5253073;28;19916;-59
2022/03/19 05:39:37;;;;;;;;;;;;;;;3.88;100.00;104150.75;5252526;28;19923;-61
2022/03/19 05:42:08;;;;;;;;;;;;;;;3.90;100.00;104146.13;5252525;28;19981;-60
2022/03/19 05:44:38;;;;;;;;;;;;;;;3.88;100.00;104156.13;5251868;28;19955;-59
2022/03/19 05:47:09;;;;;;;;;;;;;;;3.88;100.00;104156.13;5252428;28;20265;-57
2022/03/19 05:49:40;;;;;;;;;;;;;;;3.97;100.00;104149.13;5252338;28;20159;-59
2022/03/19 05:52:10;;;;;;;;;;;;;;;3.98;100.00;104150.84;5252745;28;19912;-59
2022/03/19 05:54:41;;;;;;;;;;;;;;;3.96;100.00;104150.97;5251871;28;20336;-60
2022/03/19 05:57:11;;;;;;;;;;;;;;;3.92;100.00;104152.19;5251711;28;19912;-60
2022/03/19 05:59:41;;;;;;;;;;;;;;;3.92;100.00;104140.66;5250917;28;20398;-60
2022/03/19 06:02:11;;;;;;;;;;;;;;;3.94;100.00;104144.06;5250951;28;19926;-60
2022/03/19 06:04:42;;;;;;;;;;;;;;;3.90;100.00;104139.94;5250751;28;20124;-59
2022/03/19 06:07:12;;;;;;;;;;;;;;;3.90;100.00;104148.81;5251795;28;19985;-60
2022/03/19 06:09:42;;;;;;;;;;;;;;;3.94;100.00;104160.94;5251487;28;19912;-59
2022/03/19 06:12:13;;;;;;;;;;;;;;;3.93;100.00;104156.56;5250886;28;19923;-60
2022/03/19 06:14:43;;;;;;;;;;;;;;;3.91;100.00;104153.19;5251105;28;19912;-59
2022/03/19 06:17:13;;;;;;;;;;;;;;;3.91;100.00;104160.34;5251050;28;20333;-59
2022/03/19 06:19:44;;;;;;;;;;;;;;;3.92;100.00;104157.56;5252104;28;19965;-59
2022/03/19 06:22:14;;;;;;;;;;;;;;;3.98;100.00;104161.53;5251945;28;19939;-59
2022/03/19 06:24:44;;;;;;;;;;;;;;;4.01;100.00;104166.63;5252062;28;19912;-59
2022/03/19 06:27:15;;;;;;;;;;;;;;;4.05;100.00;104166.19;5251779;28;20018;-57
2022/03/19 06:29:45;;;;;;;;;;;;;;;4.08;100.00;104171.28;5251211;28;19912;-59
2022/03/19 06:32:20;;;;;;;;;;;;;;;4.13;100.00;104170.03;5251527;28;19923;-59
2022/03/19 06:34:51;;;;;;;;;;;;;;;4.18;100.00;104170.50;5251431;28;20405;-59
2022/03/19 06:37:21;;;;;;;;;;;;;;;4.26;100.00;104166.19;5251549;28;19911;-59
2022/03/19 06:39:57;;;;;;;;;;;;;;;4.30;100.00;104166.78;5251080;28;20391;-57
2022/03/19 06:42:27;;;;;;;;;;;;;;;4.40;100.00;104164.97;5250785;28;19927;-59
2022/03/19 06:44:58;;;;;;;;;;;;;;;4.47;100.00;104160.78;5250625;28;19912;-63
2022/03/19 06:47:28;;;;;;;;;;;;;;;4.51;100.00;104159.53;5250935;28;19912;-59
2022/03/19 06:50:03;;;;;;;;;;;;;;;4.56;100.00;104165.34;5234163;28;22155;-59
2022/03/19 06:52:33;;;;;;;;;;;;;;;4.60;100.00;104169.44;5251710;28;19916;-59
2022/03/19 06:55:04;;;;;;;;;;;;;;;4.66;100.00;104168.03;5251233;28;19995;-59
2022/03/19 06:57:37;;;;;;;;;;;;;;;4.69;100.00;104173.97;5251171;28;19918;-59
2022/03/19 07:00:08;;;;;;;;;;;;;;;4.76;100.00;104168.91;5251121;28;20360;-59
2022/03/19 07:02:46;;;;;;;;;;;;;;;4.81;100.00;104169.34;5254955;28;19916;-59
2022/03/19 07:05:23;;;;;;;;;;;;;;;4.92;100.00;104171.06;5254090;28;19919;-58
2022/03/19 07:07:54;;;;;;;;;;;;;;;5.00;100.00;104166.72;5272015;28;19964;-59
2022/03/19 07:10:24;;;;;;;;;;;;;;;5.09;100.00;104160.53;5252781;28;20399;-60
2022/03/19 07:12:56;;;;;;;;;;;;;;;5.16;100.00;104170.69;5252725;28;19916;-61
2022/03/19 07:15:30;;;;;;;;;;;;;;;5.25;100.00;104169.84;5252377;28;19923;-61
2022/03/19 07:18:00;;;;;;;;;;;;;;;5.35;100.00;104163.50;5253312;28;19912;-61
2022/03/19 07:20:31;;;;;;;;;;;;;;;5.43;100.00;104155.63;5253517;28;19934;-61
2022/03/19 07:23:02;;;;;;;;;;;;;;;5.49;100.00;104158.69;5253484;28;20295;-60
2022/03/19 07:25:34;;;;;;;;;;;;;;;5.56;100.00;104165.19;5253424;28;19921;-61
2022/03/19 07:28:09;;;;;;;;;;;;;;;5.69;100.00;104160.41;5271303;28;20014;-61
2022/03/19 07:30:40;;;;;;;;;;;;;;;5.76;100.00;104156.16;5250143;28;19921;-61
2022/03/19 07:33:11;;;;;;;;;;;;;;;5.80;100.00;104154.88;5252340;28;19939;-61
2022/03/19 07:35:42;;;;;;;;;;;;;;;5.86;100.00;104156.97;5252205;28;19912;-61
2022/03/19 07:38:12;;;;;;;;;;;;;;;5.94;100.00;104151.78;5252754;28;20380;-61
2022/03/19 07:43:32;;;;;;;;;;;;;;;6.18;100.00;104142.38;5270280;28;20052;-61
2022/03/19 07:46:02;;;;;;;;;;;;;;;6.25;100.00;104148.88;5252302;28;20006;-61
2022/03/19 07:48:32;;;;;;;;;;;;;;;6.37;100.00;104139.59;5252187;28;19959;-61
2022/03/19 07:51:02;;;;;;;;;;;;;;;6.42;100.00;104134.66;5251751;28;20003;-61
2022/03/19 07:53:33;;;;;;;;;;;;;;;6.46;100.00;104144.09;5251598;28;20338;-61
2022/03/19 07:56:03;;;;;;;;;;;;;;;6.54;100.00;104141.53;5251843;28;19912;-61
2022/03/19 07:58:34;;;;;;;;;;;;;;;6.62;100.00;104136.28;5251937;28;19920;-61
2022/03/19 08:01:04;;;;;;;;;;;;;;;6.68;100.00;104135.66;5251875;28;19919;-61
2022/03/19 08:03:34;;;;;;;;;;;;;;;6.77;100.00;104140.13;5251400;28;19912;-59
2022/03/19 08:06:05;;;;;;;;;;;;;;;6.89;100.00;104119.28;5251562;28;20403;-63
2022/03/19 08:08:37;;;;;;;;;;;;;;;6.94;100.00;104129.53;5269389;28;20217;-61
2022/03/19 08:11:08;;;;;;;;;;;;;;;7.01;100.00;104133.31;5251392;28;19912;-61
2022/03/19 08:13:39;;;;;;;;;;;;;;;7.10;100.00;104132.41;5250363;28;19938;-65
2022/03/19 08:16:09;;;;;;;;;;;;;;;7.21;100.00;104116.06;5251102;28;20378;-61
2022/03/19 08:18:40;;;;;;;;;;;;;;;7.31;100.00;104127.56;5250009;28;19912;-64
2022/03/19 08:21:10;;;;;;;;;;;;;;;7.39;100.00;104119.56;5268089;28;20283;-61
2022/03/19 08:23:40;;;;;;;;;;;;;;;7.45;100.00;104121.66;5250749;28;19912;-66
2022/03/19 08:26:11;;;;;;;;;;;;;;;7.50;100.00;104129.25;5250951;28;19913;-61
2022/03/19 08:28:41;;;;;;;;;;;;;;;7.57;100.00;104127.63;5251045;28;19912;-63
2022/03/19 08:31:11;;;;;;;;;;;;;;;7.67;100.00;104114.94;5250974;28;19916;-61
2022/03/19 08:33:41;;;;;;;;;;;;;;;7.82;100.00;104123.25;5250654;28;20295;-61
2022/03/19 08:36:12;;;;;;;;;;;;;;;7.93;100.00;104124.84;5269340;28;19951;-61
2022/03/19 08:41:31;;;;;;;;;;;;;;;8.20;100.00;104118.44;5268941;28;20193;-61
2022/03/19 08:44:04;;;;;;;;;;;;;;;8.37;100.00;104114.88;5246514;28;19916;-60
2022/03/19 08:46:34;;;;;;;;;;;;;;;8.54;100.00;104113.91;5245314;28;20360;-61
2022/03/19 08:49:05;;;;;;;;;;;;;;;8.67;100.00;104116.97;5250263;28;19912;-61
2022/03/19 08:51:41;;;;;;;;;;;;;;;8.82;100.00;104113.66;5250539;28;19919;-64
2022/03/19 08:54:14;;;;;;;;;;;;;;;8.94;100.00;104118.59;5250320;28;19920;-62
2022/03/19 08:56:45;;;;;;;;;;;;;;;9.02;100.00;104109.66;5251200;28;19984;-61
2022/03/19 08:59:16;;;;;;;;;;;;;;;9.10;100.00;104107.81;5269326;28;20354;-61
2022/03/19 09:01:48;;;;;;;;;;;;;;;9.21;100.00;104101.25;5250083;28;19939;-61
2022/03/19 09:04:18;;;;;;;;;;;;;;;9.26;100.00;104112.34;5250127;28;19912;-62
2022/03/19 09:06:49;;;;;;;;;;;;;;;9.37;100.00;104106.66;5250567;28;19935;-61
2022/03/19 09:09:19;;;;;;;;;;;;;;;9.58;100.00;104100.72;5250388;28;19981;-60
2022/03/19 09:11:50;;;;;;;;;;;;;;;9.77;100.00;104097.69;5250086;28;19912;-59
2022/03/19 09:14:20;;;;;;;;;;;;;;;9.94;100.00;104093.06;5249619;28;19923;-61
2022/03/19 09:16:51;;;;;;;;;;;;;;;10.18;100.00;104099.41;5250356;28;19916;-61
2022/03/19 09:19:22;;;;;;;;;;;;;;;10.20;100.00;104089.31;5249881;28;19919;-59
2022/03/19 09:21:52;;;;;;;;;;;;;;;10.25;100.00;104087.78;5250294;28;19912;-60
2022/03/19 09:24:23;;;;;;;;;;;;;;;10.32;100.00;104087.94;5249431;28;19912;-60
2022/03/19 09:26:53;;;;;;;;;;;;;;;10.38;100.00;104088.06;5249661;28;19912;-60
2022/03/19 09:29:24;;;;;;;;;;;;;;;10.55;100.00;104082.56;5249568;28;19918;-60
2022/03/19 09:31:54;;;;;;;;;;;;;;;10.71;100.00;104079.75;5249606;28;20012;-60
2022/03/19 09:34:25;;;;;;;;;;;;;;;10.90;100.00;104076.63;5249547;28;19923;-58
2022/03/19 09:36:55;;;;;;;;;;;;;;;10.96;100.00;104070.50;5250097;28;19994;-59
2022/03/19 09:39:25;;;;;;;;;;;;;;;11.09;100.00;104059.91;5251040;28;19912;-60
2022/03/19 09:41:56;;;;;;;;;;;;;;;11.19;100.00;104065.06;5249633;28;20339;-60
2022/03/19 09:44:26;;;;;;;;;;;;;;;11.24;100.00;104062.66;5249466;28;19975;-60
2022/03/19 09:46:57;;;;;;;;;;;;;;;11.26;100.00;104055.19;5250553;28;20318;-60
2022/03/19 09:49:27;;;;;;;;;;;;;;;11.37;100.00;104051.19;5250104;28;20003;-60
2022/03/19 09:51:58;;;;;;;;;;;;;;;11.44;100.00;104047.59;5250136;28;19912;-60
2022/03/19 09:54:28;;;;;;;;;;;;;;;11.54;100.00;104047.34;5249289;28;20288;-59
2022/03/19 09:56:58;;;;;;;;;;;;;;;11.68;100.00;104034.81;5249726;28;19920;-60
2022/03/19 09:59:29;;;;;;;;;;;;;;;11.64;100.00;104036.22;5268361;28;19916;-60
2022/03/19 10:02:03;;;;;;;;;;;;;;;11.56;98.30;104036.28;5249639;28;19916;-60
2022/03/19 10:04:37;;;;;;;;;;;;;;;11.60;94.85;104027.63;5249562;28;19912;-60
2022/03/19 10:09:57;;;;;;;;;;;;;;;11.60;94.75;104015.94;5268851;28;19958;-60
2022/03/19 10:12:30;;;;;;;;;;;;;;;11.63;91.56;104018.28;5250212;28;20379;-60
2022/03/19 10:15:00;;;;;;;;;;;;;;;11.67;90.59;104011.47;5249148;28;19966;-62
2022/03/19 10:17:32;;;;;;;;;;;;;;;11.68;92.15;104010.47;5263665;22;19924;-58
2022/03/19 10:20:06;;;;;;;;;;;;;;;11.83;92.79;104003.22;5227730;28;20350;-58
2022/03/19 10:22:41;;;;;;;;;;;;;;;12.02;92.12;104008.03;5244994;28;20280;-58
2022/03/19 10:25:12;;;;;;;;;;;;;;;12.13;92.33;103993.16;5244683;28;19986;-59
2022/03/19 10:27:43;;;;;;;;;;;;;;;12.38;87.10;103996.38;5228444;28;20185;-58
2022/03/19 10:30:16;;;;;;;;;;;;;;;12.40;86.87;103983.50;5227955;28;19914;-60
2022/03/19 10:32:48;;;;;;;;;;;;;;;12.40;85.31;103994.34;5228107;28;19958;-59
2022/03/19 10:35:28;;;;;;;;;;;;;;;12.45;81.55;103989.16;5245125;28;19970;-57
2022/03/19 10:37:59;;;;;;;;;;;;;;;12.42;81.70;103982.25;5232228;28;20290;-59
2022/03/19 10:40:37;;;;;;;;;;;;;;;12.38;78.63;103974.72;5248702;28;19912;-58
2022/03/19 10:43:08;;;;;;;;;;;;;;;12.46;75.18;103969.97;5248993;28;20019;-57
2022/03/19 10:45:49;;;;;;;;;;;;;;;12.59;71.69;103954.91;5248652;28;19912;-57
2022/03/19 10:48:27;;;;;;;;;;;;;;;12.63;75.37;103954.31;5248959;28;19919;-58
2022/03/19 10:51:02;;;;;;;;;;;;;;;12.58;83.04;103951.34;5231949;28;19917;-58
2022/03/19 10:53:33;;;;;;;;;;;;;;;12.57;80.84;103946.97;5248979;28;19916;-59
2022/03/19 10:56:04;;;;;;;;;;;;;;;12.54;79.34;103944.63;5249098;28;19919;-61
2022/03/19 10:58:34;;;;;;;;;;;;;;;12.47;76.51;103935.59;5232349;28;19913;-59
2022/03/19 11:01:05;;;;;;;;;;;;;;;12.39;76.16;103935.75;5232529;28;19912;-59
2022/03/19 11:03:38;;;;;;;;;;;;;;;12.35;75.40;103939.88;5257792;22;20309;-59
2022/03/19 11:06:26;;;;;;;;;;;;;;;12.37;74.75;103921.53;5239843;28;20268;-61
2022/03/19 11:08:57;;;;;;;;;;;;;;;12.38;74.41;103950.31;5272040;28;19954;-60
2022/03/19 11:11:39;;;;;;;;;;;;;;;12.36;73.53;103936.13;5253556;28;19951;-60
2022/03/19 11:14:10;;;;;;;;;;;;;;;12.25;72.26;103921.19;5252519;28;19969;-60
2022/03/19 11:16:41;;;;;;;;;;;;;;;12.38;73.67;103915.09;5252850;28;19912;-60
2022/03/19 11:19:11;;;;;;;;;;;;;;;12.52;76.14;103911.44;5253373;28;19947;-59
2022/03/19 11:21:42;;;;;;;;;;;;;;;12.50;75.57;103900.81;5253041;28;20008;-59
2022/03/19 11:24:24;;;;;;;;;;;;;;;12.56;75.50;103910.03;5252575;28;20018;-58
2022/03/19 11:26:54;;;;;;;;;;;;;;;12.54;74.24;103905.84;5248246;28;19923;-61
2022/03/19 11:29:27;;;;;;;;;;;;;;;12.44;74.58;103895.31;5270723;28;19912;-59
2022/03/19 11:31:58;;;;;;;;;;;;;;;12.41;75.37;103882.19;5252776;28;20315;-59
2022/03/19 11:34:41;;;;;;;;;;;;;;;12.56;73.70;103899.19;5252188;28;19927;-58
2022/03/19 11:37:12;;;;;;;;;;;;;;;12.75;72.73;103882.25;5270732;28;19966;-57
2022/03/19 11:40:02;;;;;;;;;;;;;;;12.69;72.42;103874.91;5270360;28;19949;-58
2022/03/19 11:42:33;;;;;;;;;;;;;;;12.72;73.07;103863.66;5242898;28;19918;-59
2022/03/19 11:45:10;;;;;;;;;;;;;;;12.62;73.77;103890.28;5230218;28;19999;-59
2022/03/19 11:47:40;;;;;;;;;;;;;;;12.60;75.77;103876.09;5230075;28;20371;-57
2022/03/19 11:50:17;;;;;;;;;;;;;;;12.61;73.15;103874.22;5230023;28;19913;-59
2022/03/19 11:52:54;;;;;;;;;;;;;;;12.61;70.67;103877.75;5230294;28;19970;-59
2022/03/19 11:55:29;;;;;;;;;;;;;;;12.74;67.53;103866.16;5230516;28;19913;-59
2022/03/19 11:58:02;;;;;;;;;;;;;;;12.70;65.96;103863.03;5230617;28;19970;-58
2022/03/19 12:00:34;;;;;;;;;;;;;;;12.94;68.23;103847.34;5230022;28;19912;-58
2022/03/19 12:03:19;;;;;;;;;;;;;;;13.17;67.84;103853.34;5248092;28;19924;-58
2022/03/19 12:05:50;;;;;;;;;;;;;;;13.05;65.57;103841.34;5230586;28;20440;-59
2022/03/19 12:08:21;;;;;;;;;;;;;;;12.95;63.78;103835.44;5248122;28;19916;-58
2022/03/19 12:11:02;;;;;;;;;;;;;;;12.87;64.23;103827.47;5227507;28;19913;-59
2022/03/19 12:13:32;;;;;;;;;;;;;;;12.91;62.97;103834.16;5229244;28;19916;-58
2022/03/19 12:16:04;;;;;;;;;;;;;;;12.81;63.85;103816.38;5229692;28;20303;-59
2022/03/19 12:18:47;;;;;;;;;;;;;;;12.88;64.58;103821.00;5229590;28;19966;-61
2022/03/19 12:21:21;;;;;;;;;;;;;;;13.06;66.18;103803.16;5229401;28;19912;-58
2022/03/19 12:23:58;;;;;;;;;;;;;;;13.19;61.85;103802.44;5229945;28;19916;-58
2022/03/19 12:26:35;;;;;;;;;;;;;;;13.15;61.13;103793.84;5230118;28;19917;-57
2022/03/19 12:29:07;;;;;;;;;;;;;;;13.27;60.33;103783.28;5230149;28;19912;-60
2022/03/19 12:31:41;;;;;;;;;;;;;;;13.60;57.44;103786.06;5229874;28;19912;-58
2022/03/19 12:34:18;;;;;;;;;;;;;;;13.60;54.04;103774.38;5229334;28;19970;-58
2022/03/19 12:36:50;;;;;;;;;;;;;;;13.71;54.60;103761.03;5229943;28;19977;-58
2022/03/19 12:39:20;;;;;;;;;;;;;;;13.80;53.38;103751.66;5229771;28;19919;-57
2022/03/19 12:41:51;;;;;;;;;;;;;;;13.89;53.36;103741.41;5248048;28;19916;-58
2022/03/19 12:44:23;;;;;;;;;;;;;;;14.02;50.21;103746.84;5229018;28;19916;-58
2022/03/19 12:46:56;;;;;;;;;;;;;;;13.96;46.58;103749.56;5229618;28;19912;-58
2022/03/19 12:49:27;;;;;;;;;;;;;;;13.89;47.41;103732.41;5229779;28;19920;-59
2022/03/19 12:52:07;;;;;;;;;;;;;;;14.07;46.39;103728.06;5229260;28;19956;-58
2022/03/19 12:54:45;;;;;;;;;;;;;;;14.15;45.09;103716.09;5229247;28;19923;-59
2022/03/19 12:57:23;;;;;;;;;;;;;;;14.15;44.02;103722.38;5229579;28;19912;-60
2022/03/19 12:59:55;;;;;;;;;;;;;;;14.17;44.97;103712.13;5229125;28;19912;-61
2022/03/19 13:02:26;;;;;;;;;;;;;;;14.09;46.35;103704.22;5229397;28;20044;-58
2022/03/19 13:04:56;;;;;;;;;;;;;;;13.92;45.74;103693.97;5229242;28;19916;-57
2022/03/19 13:07:26;;;;;;;;;;;;;;;13.93;45.61;103695.66;5229318;28;20229;-58
2022/03/19 13:09:57;;;;;;;;;;;;;;;13.87;44.06;103689.16;5229232;28;19913;-58
2022/03/19 13:12:27;;;;;;;;;;;;;;;13.75;42.88;103688.97;5228994;28;19916;-57